Terminal Aerodrome Forecast
Issued by NWS Sioux Falls, SD

Home | Current Version | Previous Version | Text Only | Print | Product List | Glossary On
Versions: 1 2 3 4 5 6 7 8 9 10 11 12 13 14 15 16 17 18 19 20 21 22 23 24 25
000
FTUS43 KFSD 270958 AAA
TAFSUX
TAF AMD
KSUX 270958Z 2710/2806 VRB02KT 4SM BR SKC
      TEMPO 2710/2712 3/4SM MIFG SCT002
     FM271400 VRB02KT P6SM SKC
     FM271600 27004KT P6SM SCT040
     FM280100 24005KT P6SM SCT070 SCT200=

USA.gov is the U.S. government's official web portal to all federal, state and local government web resources and services.